createdAt,value
2023-01-01T00:00:16.683Z,86.93
2023-01-01T00:02:43.828Z,85.30
2023-01-01T00:05:10.860Z,88.77
2023-01-01T00:07:37.859Z,93.27
2023-01-01T00:10:23.856Z,87.30
2023-01-01T00:12:50.857Z,91.30
2023-01-01T00:15:17.996Z,89.80
2023-01-01T00:17:45.101Z,87.70
2023-01-01T00:20:12.539Z,85.53
2023-01-01T00:22:56.296Z,83.97
2023-01-01T00:25:24.670Z,84.53
2023-01-01T00:27:52.004Z,88.07
2023-01-01T00:30:19.243Z,82.33
2023-01-01T00:32:55.855Z,87.70
2023-01-01T00:35:26.900Z,88.30
2023-01-01T00:37:55.370Z,89.30
2023-01-01T00:40:23.190Z,81.53
2023-01-01T00:42:50.425Z,88.33
2023-01-01T00:45:22.030Z,104.10
2023-01-01T00:47:51.768Z,101.17
2023-01-01T00:50:19.497Z,108.00
2023-01-01T00:52:47.048Z,119.60
2023-01-01T00:55:14.121Z,130.13
2023-01-01T00:57:41.250Z,127.60
2023-01-01T01:00:09.302Z,135.60
2023-01-01T01:02:36.428Z,131.00
2023-01-01T01:05:04.881Z,128.37
2023-01-01T01:07:38.673Z,144.70
2023-01-01T01:10:07.006Z,140.37
2023-01-01T01:12:35.232Z,143.20
2023-01-01T01:15:02.710Z,145.40
2023-01-01T01:17:29.824Z,148.97
2023-01-01T01:19:56.818Z,151.93
2023-01-01T01:22:28.255Z,134.03
2023-01-01T01:24:57.247Z,138.40
2023-01-01T01:27:24.703Z,142.50
2023-01-01T01:29:52.200Z,145.37
2023-01-01T01:32:19.692Z,144.23
2023-01-01T01:34:47.280Z,142.97
2023-01-01T01:37:14.334Z,127.70
2023-01-01T01:39:41.322Z,140.13
2023-01-01T01:42:08.347Z,125.40
2023-01-01T01:44:47.640Z,119.03
2023-01-01T01:47:50.621Z,114.20
2023-01-01T01:50:20.357Z,109.90
2023-01-01T01:53:00.141Z,114.30
2023-01-01T01:55:31.036Z,109.77
2023-01-01T01:57:58.317Z,116.33
2023-01-01T02:00:25.419Z,114.03
2023-01-01T02:02:55.335Z,115.07
2023-01-01T02:05:30.092Z,111.30
2023-01-01T02:07:59.146Z,120.30
2023-01-01T02:10:27.507Z,113.47
2023-01-01T02:12:54.575Z,121.17
2023-01-01T02:15:25.943Z,129.00
2023-01-01T02:17:59.297Z,130.40
2023-01-01T02:20:40.025Z,136.27
2023-01-01T02:23:46.228Z,134.97
2023-01-01T02:26:38.813Z,135.17
2023-01-01T02:29:12.038Z,129.70
2023-01-01T02:31:45.595Z,134.80
2023-01-01T02:34:17.786Z,136.30
2023-01-01T02:36:51.137Z,128.73
2023-01-01T02:39:21.516Z,134.47
2023-01-01T02:41:52.464Z,130.70
2023-01-01T02:44:22.264Z,133.40
2023-01-01T02:46:49.241Z,138.50
2023-01-01T02:49:16.256Z,133.30
2023-01-01T02:51:52.142Z,131.93
2023-01-01T02:54:19.130Z,136.30
2023-01-01T02:56:55.287Z,147.27
2023-01-01T03:00:28.337Z,136.03
2023-01-01T03:02:55.668Z,132.93
2023-01-01T03:05:35.255Z,143.93
2023-01-01T03:08:06.888Z,144.07
2023-01-01T03:10:40.275Z,137.40
2023-01-01T03:13:50.355Z,142.60
2023-01-01T03:16:29.523Z,136.93
2023-01-01T03:19:17.978Z,133.83
2023-01-01T03:21:55.918Z,129.60
2023-01-01T03:24:30.126Z,139.00
2023-01-01T03:27:04.832Z,127.20
2023-01-01T03:29:35.646Z,124.03
2023-01-01T03:32:05.866Z,133.30
2023-01-01T03:34:40.620Z,118.70
2023-01-01T03:37:14.648Z,135.23
2023-01-01T03:39:53.091Z,122.77
2023-01-01T03:42:20.004Z,136.20
2023-01-01T03:44:52.389Z,139.77
2023-01-01T03:47:20.376Z,135.63
2023-01-01T03:49:47.631Z,130.07
2023-01-01T03:52:36.632Z,133.17
2023-01-01T03:55:14.589Z,131.27
2023-01-01T03:58:03.061Z,139.20
2023-01-01T04:00:41.115Z,125.43
2023-01-01T04:03:20.191Z,130.37
2023-01-01T04:05:47.441Z,136.93
2023-01-01T04:08:16.035Z,126.37
2023-01-01T04:10:47.491Z,130.70
2023-01-01T04:13:14.503Z,129.53
2023-01-01T04:15:42.823Z,133.73
2023-01-01T04:18:09.786Z,130.77
2023-01-01T04:20:36.846Z,137.63
2023-01-01T04:23:04.308Z,132.10
2023-01-01T04:25:31.796Z,130.60
2023-01-01T04:27:59.215Z,139.93
2023-01-01T04:30:26.979Z,120.93
2023-01-01T04:32:55.904Z,131.60
2023-01-01T04:35:22.983Z,132.23
2023-01-01T04:37:50.011Z,133.20
2023-01-01T04:40:17.127Z,130.47
2023-01-01T04:42:44.276Z,129.27
2023-01-01T04:45:15.480Z,116.93
2023-01-01T04:47:43.318Z,131.97
2023-01-01T04:50:10.541Z,130.23
2023-01-01T04:52:37.811Z,138.73
2023-01-01T04:55:05.299Z,126.17
2023-01-01T04:57:32.458Z,130.33
2023-01-01T04:59:59.495Z,132.93
2023-01-01T05:02:26.998Z,133.70
2023-01-01T05:04:54.333Z,125.80
2023-01-01T05:07:21.412Z,140.47
2023-01-01T05:09:48.393Z,136.33
2023-01-01T05:12:15.743Z,141.80
2023-01-01T05:14:42.777Z,128.40
2023-01-01T05:17:09.771Z,125.93
2023-01-01T05:19:36.730Z,128.83
2023-01-01T05:22:10.162Z,135.00
2023-01-01T05:24:37.841Z,123.47
2023-01-01T05:27:04.841Z,113.60
2023-01-01T05:29:31.882Z,123.40
2023-01-01T05:31:58.866Z,131.23
2023-01-01T05:34:27.623Z,111.50
2023-01-01T05:36:54.763Z,123.67
2023-01-01T05:39:21.745Z,123.87
2023-01-01T05:41:48.763Z,124.97
2023-01-01T05:44:17.354Z,122.10
2023-01-01T05:46:44.420Z,124.20
2023-01-01T05:49:12.871Z,118.53
2023-01-01T05:54:06.421Z,118.60
2023-01-01T05:56:33.542Z,121.63
2023-01-01T05:59:01.711Z,114.13
2023-01-01T06:01:30.816Z,116.03
2023-01-01T06:03:59.237Z,116.63
2023-01-01T06:06:31.361Z,117.53
2023-01-01T06:09:00.802Z,111.23
2023-01-01T06:11:29.247Z,103.87
2023-01-01T06:13:58.402Z,106.23
2023-01-01T06:16:27.015Z,109.07
2023-01-01T06:18:54.528Z,105.57
2023-01-01T06:21:24.281Z,107.93
2023-01-01T06:23:51.800Z,109.53
2023-01-01T06:26:22.140Z,109.23
2023-01-01T06:28:49.241Z,108.87
2023-01-01T06:31:18.664Z,98.57
2023-01-01T06:33:46.486Z,99.20
2023-01-01T06:36:16.899Z,101.83
2023-01-01T06:38:46.979Z,96.03
2023-01-01T06:41:16.295Z,102.27
2023-01-01T06:43:43.796Z,99.80
2023-01-01T06:46:28.789Z,98.33
2023-01-01T06:48:59.599Z,98.40
2023-01-01T06:51:29.426Z,102.53
2023-01-01T06:53:59.837Z,98.63
2023-01-01T06:56:27.586Z,95.67
2023-01-01T06:58:54.631Z,92.40
2023-01-01T07:01:24.044Z,92.90
2023-01-01T07:03:53.121Z,92.30
2023-01-01T07:06:20.146Z,93.13
2023-01-01T07:08:47.109Z,92.53
2023-01-01T07:11:14.141Z,93.83
2023-01-01T07:13:41.133Z,87.63
2023-01-01T07:16:12.660Z,91.53
2023-01-01T07:18:40.900Z,92.83
2023-01-01T07:21:32.848Z,82.93
2023-01-01T07:24:05.838Z,94.27
2023-01-01T07:26:34.127Z,83.33
2023-01-01T07:29:08.940Z,87.10
2023-01-01T07:31:37.883Z,85.63
2023-01-01T07:34:06.451Z,86.60
2023-01-01T07:36:33.905Z,82.30
2023-01-01T07:39:00.977Z,91.77
2023-01-01T07:41:28.101Z,80.50
2023-01-01T07:43:55.085Z,85.43
2023-01-01T07:46:22.229Z,83.13
2023-01-01T07:48:49.242Z,76.57
2023-01-01T07:51:16.274Z,84.03
2023-01-01T07:53:43.340Z,76.47
2023-01-01T07:56:10.643Z,71.60
2023-01-01T07:58:41.359Z,70.43
2023-01-01T08:01:12.071Z,75.67
2023-01-01T08:03:39.385Z,70.30
2023-01-01T08:06:11.367Z,66.17
2023-01-01T08:08:38.645Z,66.50
2023-01-01T08:11:06.129Z,68.27
2023-01-01T08:13:33.299Z,69.67
2023-01-01T08:16:00.494Z,66.47
2023-01-01T08:18:27.685Z,73.33
2023-01-01T08:20:55.321Z,64.67
2023-01-01T08:23:22.310Z,64.00
2023-01-01T08:25:49.336Z,61.80
2023-01-01T08:28:16.337Z,62.40
2023-01-01T08:30:43.283Z,58.47
2023-01-01T08:33:12.007Z,65.63
2023-01-01T08:35:41.792Z,64.07
2023-01-01T08:38:11.592Z,64.37
2023-01-01T08:40:39.416Z,60.63
2023-01-01T08:43:06.449Z,57.07
2023-01-01T08:45:33.432Z,65.63
2023-01-01T08:48:00.648Z,60.63
2023-01-01T08:50:27.743Z,59.00
2023-01-01T08:52:55.609Z,58.07
2023-01-01T08:55:22.730Z,63.10
2023-01-01T08:57:49.712Z,63.73
2023-01-01T09:00:18.140Z,63.50
2023-01-01T09:02:45.200Z,61.37
2023-01-01T09:05:12.287Z,64.07
2023-01-01T09:07:39.296Z,55.73
2023-01-01T09:10:06.822Z,59.10
2023-01-01T09:12:33.862Z,56.20
2023-01-01T09:15:00.834Z,58.63
2023-01-01T09:17:27.812Z,54.47
2023-01-01T09:19:55.776Z,55.50
2023-01-01T09:22:22.723Z,53.77
2023-01-01T09:24:49.761Z,58.20
2023-01-01T09:27:16.970Z,56.23
2023-01-01T09:29:43.957Z,52.40
2023-01-01T09:32:10.977Z,54.43
2023-01-01T09:34:38.025Z,50.40
2023-01-01T09:37:05.014Z,51.00
2023-01-01T09:39:32.150Z,49.87
2023-01-01T09:42:50.697Z,48.73
2023-01-01T09:45:28.084Z,54.67
2023-01-01T09:48:04.012Z,53.77
2023-01-01T09:50:43.145Z,47.97
2023-01-01T09:53:47.237Z,53.37
2023-01-01T09:56:20.559Z,49.83
2023-01-01T09:58:47.551Z,51.00
2023-01-01T10:01:37.205Z,48.07
2023-01-01T10:04:34.483Z,51.67
2023-01-01T10:07:35.249Z,46.07
2023-01-01T10:10:20.731Z,45.90
2023-01-01T10:13:13.697Z,45.23
2023-01-01T10:15:53.181Z,43.93
2023-01-01T10:18:25.300Z,46.33
2023-01-01T10:21:22.081Z,45.00
2023-01-01T10:24:25.991Z,45.70
2023-01-01T10:26:55.517Z,47.87
2023-01-01T10:29:38.956Z,46.40
2023-01-01T10:32:30.546Z,47.83
2023-01-01T10:34:58.107Z,42.50
2023-01-01T10:37:28.457Z,43.33
2023-01-01T10:39:56.108Z,43.53
2023-01-01T10:42:23.054Z,47.60
2023-01-01T10:44:53.273Z,44.67
2023-01-01T10:47:29.430Z,49.47
2023-01-01T10:50:02.671Z,51.07
2023-01-01T10:52:39.793Z,49.50
2023-01-01T10:55:20.901Z,52.20
2023-01-01T10:57:47.845Z,53.77
2023-01-01T11:00:23.967Z,45.20
2023-01-01T11:03:26.627Z,52.00
2023-01-01T11:06:05.220Z,54.13
2023-01-01T11:08:34.896Z,54.57
2023-01-01T11:11:03.234Z,51.20
2023-01-01T11:13:31.581Z,55.90
2023-01-01T11:15:59.206Z,49.60
2023-01-01T11:18:36.099Z,53.83
2023-01-01T11:21:05.886Z,51.40
2023-01-01T11:23:39.980Z,48.57
2023-01-01T11:26:19.698Z,51.73
2023-01-01T11:29:00.373Z,48.67
2023-01-01T11:31:39.716Z,52.47
2023-01-01T11:34:35.570Z,48.13
2023-01-01T11:37:14.244Z,48.17
2023-01-01T11:39:48.291Z,46.50
2023-01-01T11:42:33.681Z,50.47
2023-01-01T11:45:02.378Z,51.73
2023-01-01T11:47:43.315Z,48.33
2023-01-01T11:50:29.021Z,44.80
2023-01-01T11:52:58.848Z,50.83
2023-01-01T11:55:31.626Z,50.53
2023-01-01T11:58:28.203Z,49.30
2023-01-01T12:00:57.937Z,43.93
2023-01-01T12:03:40.522Z,44.13
2023-01-01T12:06:19.298Z,45.77
2023-01-01T12:08:56.478Z,42.93
2023-01-01T12:11:47.561Z,48.33
2023-01-01T12:14:35.128Z,44.40
2023-01-01T12:17:16.893Z,48.20
2023-01-01T12:20:08.999Z,45.43
2023-01-01T12:22:36.094Z,46.57
2023-01-01T12:25:05.298Z,46.87
2023-01-01T12:27:38.097Z,45.60
2023-01-01T12:30:16.897Z,45.40
2023-01-01T12:32:56.180Z,50.33
2023-01-01T12:35:40.902Z,39.80
2023-01-01T12:38:37.183Z,39.77
2023-01-01T12:41:13.625Z,38.70
2023-01-01T12:44:08.119Z,39.13
2023-01-01T12:46:43.123Z,37.00
2023-01-01T12:49:26.943Z,35.40
2023-01-01T12:52:24.800Z,32.80
2023-01-01T12:54:51.744Z,21.90
2023-01-01T12:57:57.650Z,22.73
2023-01-01T13:00:25.997Z,25.30
2023-01-01T13:03:00.000Z,18.97
2023-01-01T13:05:43.516Z,21.83
2023-01-01T13:08:10.513Z,25.00
2023-01-01T13:10:46.594Z,23.97
2023-01-01T13:13:14.727Z,25.43
2023-01-01T13:15:43.241Z,24.53
2023-01-01T13:18:16.300Z,29.33
2023-01-01T13:21:20.112Z,29.67
2023-01-01T13:23:48.865Z,31.47
2023-01-01T13:26:21.718Z,32.77
2023-01-01T13:28:57.657Z,37.60
2023-01-01T13:31:42.635Z,31.00
2023-01-01T13:34:38.972Z,32.77
2023-01-01T13:37:14.861Z,31.93
2023-01-01T13:40:24.373Z,32.13
2023-01-01T13:42:59.208Z,35.20
2023-01-01T13:46:09.793Z,35.33
2023-01-01T13:48:21.105Z,35.60
2023-01-01T13:50:56.597Z,36.97
2023-01-01T13:53:32.766Z,35.73
2023-01-01T13:56:24.001Z,32.97
2023-01-01T13:59:32.657Z,35.93
2023-01-01T14:02:20.964Z,40.03
2023-01-01T14:04:56.500Z,42.30
2023-01-01T14:07:52.604Z,44.67
2023-01-01T14:10:19.682Z,40.57
2023-01-01T14:12:47.541Z,40.07
2023-01-01T14:15:36.058Z,40.30
2023-01-01T14:18:11.275Z,40.80
2023-01-01T14:20:43.933Z,40.30
2023-01-01T14:23:35.620Z,44.80
2023-01-01T14:26:24.226Z,46.30
2023-01-01T14:28:59.477Z,53.00
2023-01-01T14:31:31.942Z,50.73
2023-01-01T14:33:59.059Z,50.97
2023-01-01T14:36:28.567Z,51.13
2023-01-01T14:38:58.471Z,50.30
2023-01-01T14:41:34.599Z,46.70
2023-01-01T14:44:06.985Z,49.03
2023-01-01T14:46:35.494Z,52.70
2023-01-01T14:49:08.407Z,57.80
2023-01-01T14:51:39.508Z,58.83
2023-01-01T14:54:17.370Z,56.77
2023-01-01T14:56:48.108Z,57.93
2023-01-01T14:59:31.315Z,59.43
2023-01-01T15:02:10.158Z,59.90
2023-01-01T15:04:37.313Z,60.07
2023-01-01T15:07:04.478Z,61.50
2023-01-01T15:09:32.781Z,58.47
2023-01-01T15:12:00.573Z,55.83
2023-01-01T15:14:39.555Z,61.67
2023-01-01T15:17:15.125Z,57.03
2023-01-01T15:19:44.835Z,57.97
2023-01-01T15:22:24.321Z,55.47
2023-01-01T15:24:51.669Z,56.37
2023-01-01T15:27:34.394Z,59.20
2023-01-01T15:30:07.053Z,55.47
2023-01-01T15:32:38.729Z,56.53
2023-01-01T15:35:18.046Z,59.20
2023-01-01T15:37:51.705Z,55.87
2023-01-01T15:40:18.709Z,60.23
2023-01-01T15:43:05.318Z,61.87
2023-01-01T15:45:35.681Z,59.10
2023-01-01T15:48:05.685Z,61.17
2023-01-01T15:50:35.823Z,55.93
2023-01-01T15:53:24.844Z,55.03
2023-01-01T15:55:54.542Z,56.00
2023-01-01T15:58:33.979Z,56.07
2023-01-01T16:01:07.497Z,53.60
2023-01-01T16:03:36.973Z,54.40
2023-01-01T16:06:04.433Z,53.10
2023-01-01T16:08:31.430Z,55.90
2023-01-01T16:10:58.430Z,51.63
2023-01-01T16:13:25.487Z,54.13
2023-01-01T16:15:56.315Z,57.13
2023-01-01T16:18:44.648Z,58.37
2023-01-01T16:21:11.684Z,52.63
2023-01-01T16:23:38.662Z,61.93
2023-01-01T16:26:05.720Z,55.67
2023-01-01T16:28:32.709Z,56.07
2023-01-01T16:30:59.840Z,57.83
2023-01-01T16:33:26.920Z,61.00
2023-01-01T16:35:53.956Z,59.50
2023-01-01T16:38:20.901Z,62.97
2023-01-01T16:40:47.887Z,57.17
2023-01-01T16:43:17.799Z,54.77
2023-01-01T16:45:45.397Z,58.83
2023-01-01T16:48:12.560Z,62.53
2023-01-01T16:50:39.820Z,61.70
2023-01-01T16:53:06.834Z,60.17
2023-01-01T16:55:33.870Z,58.93
2023-01-01T16:58:38.197Z,60.37
2023-01-01T17:00:48.069Z,58.33
2023-01-01T17:03:15.886Z,56.63
2023-01-01T17:05:44.575Z,58.03
2023-01-01T17:08:12.101Z,52.87
2023-01-01T17:10:39.163Z,53.50
2023-01-01T17:13:06.170Z,56.67
2023-01-01T17:15:33.341Z,56.80
2023-01-01T17:18:00.567Z,55.60
2023-01-01T17:20:27.792Z,53.60
2023-01-01T17:22:54.897Z,56.03
2023-01-01T17:25:22.143Z,53.97
2023-01-01T17:27:49.130Z,57.87
2023-01-01T17:30:16.328Z,50.37
2023-01-01T17:32:43.315Z,56.83
2023-01-01T17:35:10.520Z,55.20
2023-01-01T17:37:37.556Z,56.77
2023-01-01T17:40:04.965Z,56.40
2023-01-01T17:42:31.998Z,55.00
2023-01-01T17:44:59.038Z,56.30
2023-01-01T17:47:30.886Z,51.50
2023-01-01T17:49:59.767Z,53.13
2023-01-01T17:52:26.821Z,58.67
2023-01-01T17:54:53.725Z,51.40
2023-01-01T17:57:20.810Z,53.63
2023-01-01T17:59:47.788Z,50.83
2023-01-01T18:02:15.428Z,55.30
2023-01-01T18:04:42.629Z,51.50
2023-01-01T18:07:09.604Z,47.20
2023-01-01T18:09:38.333Z,50.03
2023-01-01T18:12:06.254Z,48.63
2023-01-01T18:14:33.373Z,48.23
2023-01-01T18:17:00.397Z,50.23
2023-01-01T18:19:27.918Z,53.90
2023-01-01T18:21:55.045Z,51.07
2023-01-01T18:24:22.152Z,51.30
2023-01-01T18:26:49.091Z,58.83
2023-01-01T18:29:16.198Z,57.40
2023-01-01T18:31:44.074Z,52.70
2023-01-01T18:34:11.304Z,57.77
2023-01-01T18:36:38.525Z,49.57
2023-01-01T18:39:21.604Z,50.57
2023-01-01T18:41:55.492Z,54.03
2023-01-01T18:44:28.674Z,49.47
2023-01-01T18:47:04.157Z,49.60
2023-01-01T18:49:31.886Z,50.17
2023-01-01T18:52:07.838Z,49.37
2023-01-01T18:54:36.095Z,49.77
2023-01-01T18:57:25.263Z,50.10
2023-01-01T18:59:58.418Z,49.30
2023-01-01T19:02:39.840Z,56.23
2023-01-01T19:05:24.613Z,53.40
2023-01-01T19:08:18.899Z,49.20
2023-01-01T19:10:50.203Z,44.67
2023-01-01T19:13:33.543Z,43.37
2023-01-01T19:16:13.260Z,44.97
2023-01-01T19:18:46.124Z,40.43
2023-01-01T19:21:13.035Z,40.73
2023-01-01T19:23:49.647Z,39.90
2023-01-01T19:26:31.901Z,37.17
2023-01-01T19:29:05.651Z,33.57
2023-01-01T19:31:32.888Z,35.63
2023-01-01T19:33:59.949Z,34.67
2023-01-01T19:36:26.880Z,37.47
2023-01-01T19:38:53.826Z,36.50
2023-01-01T19:41:20.843Z,37.67
2023-01-01T19:43:48.142Z,37.30
2023-01-01T19:46:15.191Z,35.93
2023-01-01T19:48:42.157Z,37.80
2023-01-01T19:51:09.111Z,37.30
2023-01-01T19:53:36.112Z,35.73
2023-01-01T19:56:03.075Z,40.13
2023-01-01T19:58:30.043Z,35.97
2023-01-01T20:00:57.066Z,30.70
2023-01-01T20:06:11.533Z,35.17
2023-01-01T20:08:38.703Z,38.40
2023-01-01T20:11:06.290Z,38.10
2023-01-01T20:13:33.698Z,41.10
2023-01-01T20:16:02.157Z,38.47
2023-01-01T20:18:29.453Z,40.23
2023-01-01T20:21:17.026Z,38.57
2023-01-01T20:23:46.140Z,44.00
2023-01-01T20:26:14.268Z,40.00
2023-01-01T20:29:00.213Z,44.73
2023-01-01T20:31:27.327Z,45.13
2023-01-01T20:33:54.332Z,47.33
2023-01-01T20:36:39.861Z,47.17
2023-01-01T20:39:06.837Z,54.30
2023-01-01T20:41:33.838Z,62.80
2023-01-01T20:44:01.662Z,59.60
2023-01-01T20:46:32.214Z,55.80
2023-01-01T20:48:59.577Z,59.40
2023-01-01T20:51:26.964Z,55.93
2023-01-01T20:53:54.014Z,53.90
2023-01-01T20:56:21.110Z,58.23
2023-01-01T20:58:51.136Z,54.57
2023-01-01T21:01:21.698Z,55.30
2023-01-01T21:03:49.010Z,58.90
2023-01-01T21:06:21.850Z,54.83
2023-01-01T21:08:51.144Z,52.80
2023-01-01T21:11:18.199Z,54.87
2023-01-01T21:13:45.815Z,56.13
2023-01-01T21:16:18.463Z,56.50
2023-01-01T21:18:47.139Z,56.03
2023-01-01T21:21:49.400Z,58.57
2023-01-01T21:24:33.107Z,53.20
2023-01-01T21:27:24.313Z,57.83
2023-01-01T21:29:55.961Z,57.70
2023-01-01T21:32:43.568Z,52.77
2023-01-01T21:35:23.376Z,54.87
2023-01-01T21:37:54.103Z,54.37
2023-01-01T21:40:35.838Z,52.63
2023-01-01T21:43:05.488Z,58.43
2023-01-01T21:45:42.792Z,56.27
2023-01-01T21:48:09.966Z,54.20
2023-01-01T21:50:40.858Z,53.03
2023-01-01T21:53:17.910Z,51.60
2023-01-01T21:55:54.187Z,54.17
2023-01-01T21:58:58.011Z,49.97
2023-01-01T22:01:51.439Z,49.60
2023-01-01T22:04:35.533Z,51.43
2023-01-01T22:07:55.988Z,51.90
2023-01-01T22:10:25.659Z,51.17
2023-01-01T22:12:57.896Z,47.30
2023-01-01T22:15:41.929Z,50.70
2023-01-01T22:18:20.926Z,47.73
2023-01-01T22:20:49.318Z,42.83
2023-01-01T22:23:37.529Z,42.03
2023-01-01T22:26:19.127Z,40.67
2023-01-01T22:28:49.206Z,41.80
2023-01-01T22:31:25.921Z,39.53
2023-01-01T22:33:55.390Z,43.33
2023-01-01T22:36:28.057Z,39.20
2023-01-01T22:39:04.463Z,38.17
2023-01-01T22:41:31.476Z,41.27
2023-01-01T22:44:03.804Z,36.17
2023-01-01T22:46:42.184Z,29.87
2023-01-01T22:49:28.940Z,27.93
2023-01-01T22:51:57.158Z,29.57
2023-01-01T22:54:24.207Z,28.47
2023-01-01T22:56:51.149Z,28.83
2023-01-01T22:59:18.158Z,27.17
2023-01-01T23:01:45.160Z,30.27
2023-01-01T23:04:12.208Z,30.07
2023-01-01T23:06:39.429Z,29.60
2023-01-01T23:09:08.510Z,29.70
2023-01-01T23:11:35.687Z,27.67
2023-01-01T23:14:21.184Z,26.53
2023-01-01T23:16:48.460Z,26.73
2023-01-01T23:19:15.467Z,32.27
2023-01-01T23:21:42.626Z,30.23
2023-01-01T23:24:15.903Z,28.37
2023-01-01T23:26:43.727Z,27.33
2023-01-01T23:29:11.879Z,29.73
2023-01-01T23:31:39.980Z,30.30
2023-01-01T23:34:07.341Z,30.93
2023-01-01T23:36:34.896Z,28.73
2023-01-01T23:39:01.913Z,31.77
2023-01-01T23:41:28.970Z,31.57
2023-01-01T23:43:55.942Z,27.73
2023-01-01T23:46:23.118Z,29.37
2023-01-01T23:48:50.594Z,32.23
2023-01-01T23:51:17.930Z,30.50
2023-01-01T23:53:45.221Z,30.73
2023-01-01T23:56:12.327Z,32.07
2023-01-01T23:58:39.286Z,29.43
